Time;durP1;ratioP1;P1;durP2;ratioP2;P2;SDS_P1;SDS_P2;PMS_P1;PMS_P2;Temp;Humidity;BMP_temperature;BMP_pressure;BME280_temperature;BME280_humidity;BME280_pressure;Samples;Min_cycle;Max_cycle;Signal;HPM_P1;HPM_P2
2023/06/17 00:01:59;;;;;;;11.52;10.10;;;14.60;99.90;;;;;;2602982;54;20839;31
2023/06/17 00:04:34;;;;;;;10.70;8.50;;;14.50;99.90;;;;;;2602654;54;20027;31
2023/06/17 00:07:10;;;;;;;11.00;9.90;;;14.50;99.90;;;;;;2602226;54;20027;31
2023/06/17 00:09:44;;;;;;;;;;;14.50;99.90;;;;;;2602816;54;20109;31
2023/06/17 00:12:19;;;;;;;13.20;10.82;;;14.40;99.90;;;;;;2603006;54;20032;31
2023/06/17 00:14:57;;;;;;;10.18;9.20;;;14.40;99.90;;;;;;2603630;47;22376;31
2023/06/17 00:17:32;;;;;;;11.52;10.32;;;14.40;99.90;;;;;;2602725;54;20866;31
2023/06/17 00:20:11;;;;;;;9.63;8.68;;;14.30;99.90;;;;;;2602907;54;20818;31
2023/06/17 00:22:46;;;;;;;11.30;10.10;;;14.30;99.90;;;;;;2602710;54;20052;31
2023/06/17 00:25:21;;;;;;;14.02;10.18;;;14.20;99.90;;;;;;2602600;54;20027;31
2023/06/17 00:27:56;;;;;;;12.32;11.10;;;14.20;99.90;;;;;;2602621;54;20038;31
2023/06/17 00:30:34;;;;;;;12.38;10.23;;;14.10;99.90;;;;;;2620791;47;20030;31
2023/06/17 00:33:09;;;;;;;13.43;11.20;;;14.10;99.90;;;;;;2621232;47;20742;31
2023/06/17 00:35:44;;;;;;;11.88;10.68;;;14.10;99.90;;;;;;2603366;54;20739;31
2023/06/17 00:38:19;;;;;;;10.35;9.30;;;14.00;99.90;;;;;;2603270;54;20026;31
2023/06/17 00:40:54;;;;;;;10.35;9.35;;;14.00;99.90;;;;;;2603184;54;20026;31
2023/06/17 00:43:29;;;;;;;12.45;10.10;;;14.00;99.90;;;;;;2603573;54;20026;31
2023/06/17 00:46:06;;;;;;;12.10;10.73;;;14.00;99.90;;;;;;2603479;54;20893;31
2023/06/17 00:48:39;;;;;;;10.48;9.38;;;13.90;99.90;;;;;;2603249;54;21140;31
2023/06/17 00:51:14;;;;;;;13.02;11.57;;;13.90;99.90;;;;;;2603240;54;20034;31
2023/06/17 00:53:49;;;;;;;15.50;9.70;;;13.90;99.90;;;;;;2603333;54;20026;31
2023/06/17 00:56:25;;;;;;;9.05;7.60;;;13.90;99.90;;;;;;2603341;54;20050;31
2023/06/17 00:58:56;;;;;;;;;;;13.90;99.90;;;;;;2622024;46;22396;31
2023/06/17 01:01:35;;;;;;;9.20;8.20;;;13.90;99.90;;;;;;2622014;46;19993;31
2023/06/17 01:04:11;;;;;;;9.35;8.20;;;13.90;99.90;;;;;;2622040;46;20023;31
2023/06/17 01:06:47;;;;;;;13.48;11.35;;;13.90;99.90;;;;;;2603348;54;20023;31
2023/06/17 01:09:24;;;;;;;12.10;10.65;;;13.90;99.90;;;;;;2603300;54;20037;31
2023/06/17 01:11:59;;;;;;;11.63;9.07;;;13.90;99.90;;;;;;2603330;54;20026;31
2023/06/17 01:14:34;;;;;;;10.37;9.03;;;13.80;99.90;;;;;;2603267;54;20050;31
2023/06/17 01:17:12;;;;;;;9.35;8.35;;;13.80;99.90;;;;;;2621618;46;22903;31
2023/06/17 01:19:48;;;;;;;9.77;7.43;;;13.80;99.90;;;;;;2603320;54;20096;31
2023/06/17 01:22:23;;;;;;;10.10;9.10;;;13.80;99.90;;;;;;2609750;46;20107;31
2023/06/17 01:25:01;;;;;;;11.18;8.98;;;13.80;99.90;;;;;;2603233;54;20026;31
2023/06/17 01:27:37;;;;;;;11.32;8.77;;;13.80;99.90;;;;;;2603271;54;20028;31
2023/06/17 01:30:13;;;;;;;10.27;8.65;;;13.70;99.90;;;;;;2603269;54;20023;31
2023/06/17 01:32:48;;;;;;;9.70;8.30;;;13.70;99.90;;;;;;2603234;54;20073;31
2023/06/17 01:35:23;;;;;;;9.75;7.85;;;13.70;99.90;;;;;;2603283;54;20116;31
2023/06/17 01:38:04;;;;;;;11.27;9.50;;;13.70;99.90;;;;;;2603136;54;20081;31
2023/06/17 01:40:42;;;;;;;12.23;8.93;;;13.60;99.90;;;;;;2621957;46;20761;31
2023/06/17 01:43:17;;;;;;;9.70;8.70;;;13.60;99.90;;;;;;2603261;54;20230;31
2023/06/17 01:45:54;;;;;;;10.35;7.55;;;13.60;99.90;;;;;;2603122;54;21091;31
2023/06/17 01:48:29;;;;;;;7.70;6.80;;;13.60;99.90;;;;;;2603108;54;20031;31
2023/06/17 01:51:03;;;;;;;7.57;6.75;;;13.50;99.90;;;;;;2603184;54;20937;31
2023/06/17 01:53:37;;;;;;;8.97;8.07;;;13.50;99.90;;;;;;2603084;54;20884;31
2023/06/17 01:56:13;;;;;;;10.38;8.13;;;13.60;99.90;;;;;;2603296;54;20022;31
2023/06/17 01:58:48;;;;;;;11.30;8.95;;;13.50;99.90;;;;;;2603072;54;20101;31
2023/06/17 02:01:23;;;;;;;8.38;7.20;;;13.50;99.90;;;;;;2603196;54;20027;31
2023/06/17 02:03:58;;;;;;;8.52;7.03;;;13.50;99.90;;;;;;2603136;54;20030;31
2023/06/17 02:06:33;;;;;;;9.90;7.00;;;13.50;99.90;;;;;;2603148;54;20031;31
2023/06/17 02:09:07;;;;;;;14.30;8.05;;;13.50;99.90;;;;;;2603027;54;20926;31
2023/06/17 02:11:44;;;;;;;7.63;6.82;;;13.50;99.90;;;;;;2603050;54;20904;31
2023/06/17 02:14:19;;;;;;;12.35;8.55;;;13.60;99.90;;;;;;2621794;46;20034;31
2023/06/17 02:16:53;;;;;;;8.60;7.67;;;13.60;99.90;;;;;;2602980;54;20022;31
2023/06/17 02:19:31;;;;;;;10.90;9.55;;;13.60;99.90;;;;;;2602978;54;20026;31
2023/06/17 02:22:07;;;;;;;8.05;6.70;;;13.60;99.90;;;;;;2603188;54;20988;31
2023/06/17 02:24:42;;;;;;;9.33;8.37;;;13.70;99.90;;;;;;2603180;54;20842;31
2023/06/17 02:27:20;;;;;;;9.18;7.90;;;13.70;99.90;;;;;;2603221;54;20740;31
2023/06/17 02:29:54;;;;;;;8.10;7.30;;;13.70;99.90;;;;;;2603020;54;20026;31
2023/06/17 02:32:29;;;;;;;9.60;8.60;;;13.70;99.90;;;;;;2603019;54;20033;31
2023/06/17 02:35:03;;;;;;;11.10;8.43;;;13.80;99.90;;;;;;2602938;54;20023;31
2023/06/17 02:37:37;;;;;;;13.75;9.60;;;13.80;99.90;;;;;;2602947;54;20037;31
2023/06/17 02:40:13;;;;;;;10.15;8.60;;;13.80;99.90;;;;;;2603029;54;20029;31
2023/06/17 02:42:50;;;;;;;;;;;13.80;99.90;;;;;;2603479;54;21480;31
2023/06/17 02:45:24;;;;;;;;;;;13.90;99.90;;;;;;2621858;46;19946;31
2023/06/17 02:47:59;;;;;;;10.13;7.43;;;13.90;99.90;;;;;;2610134;46;21391;31
2023/06/17 02:50:34;;;;;;;10.77;9.07;;;13.90;99.90;;;;;;2602919;54;20038;31
2023/06/17 02:53:10;;;;;;;11.75;8.95;;;13.90;99.90;;;;;;2602935;54;20032;31
2023/06/17 02:55:46;;;;;;;10.15;9.05;;;13.90;99.90;;;;;;2602825;54;20026;31
2023/06/17 02:58:29;;;;;;;12.50;9.95;;;13.90;99.90;;;;;;2602461;54;20042;31
2023/06/17 03:01:05;;;;;;;14.70;12.50;;;14.00;99.90;;;;;;2602866;54;20093;31
2023/06/17 03:03:43;;;;;;;11.25;10.10;;;14.00;99.90;;;;;;2602914;54;20022;31
2023/06/17 03:06:18;;;;;;;9.25;8.30;;;14.00;99.90;;;;;;2603049;54;20877;31
2023/06/17 03:08:55;;;;;;;12.80;10.00;;;14.10;99.90;;;;;;2603142;54;20084;31
2023/06/17 03:11:31;;;;;;;7.75;6.90;;;14.10;99.90;;;;;;2602943;54;20086;31
2023/06/17 03:14:12;;;;;;;14.60;11.80;;;14.10;99.90;;;;;;2602819;54;20832;31
2023/06/17 03:16:47;;;;;;;9.73;8.27;;;14.20;99.90;;;;;;2621047;46;20105;31
2023/06/17 03:19:22;;;;;;;10.60;9.35;;;14.20;99.90;;;;;;2602952;54;20843;31
2023/06/17 03:21:57;;;;;;;11.13;9.20;;;14.30;99.90;;;;;;2603075;54;20034;31
2023/06/17 03:24:33;;;;;;;12.57;9.97;;;14.30;99.90;;;;;;2602811;54;20022;31
2023/06/17 03:27:08;;;;;;;12.57;10.63;;;14.30;99.90;;;;;;2602777;54;20852;31
2023/06/17 03:29:48;;;;;;;12.80;11.00;;;14.40;99.90;;;;;;2602723;54;20923;31
2023/06/17 03:32:23;;;;;;;13.32;11.93;;;14.40;99.90;;;;;;2603044;54;20935;31
2023/06/17 03:34:59;;;;;;;15.50;12.57;;;14.50;99.90;;;;;;2602852;54;20874;31
2023/06/17 03:37:34;;;;;;;10.60;9.50;;;14.50;99.90;;;;;;2602700;54;20128;31
2023/06/17 03:40:10;;;;;;;13.32;10.40;;;14.60;99.90;;;;;;2620881;46;22405;31
2023/06/17 03:42:46;;;;;;;12.93;10.73;;;14.60;99.90;;;;;;2602769;54;20850;31
2023/06/17 03:45:24;;;;;;;13.00;10.40;;;14.70;99.90;;;;;;2602455;54;20381;31
2023/06/17 03:48:06;;;;;;;17.50;12.18;;;14.70;99.90;;;;;;2602581;54;20112;31
2023/06/17 03:50:41;;;;;;;17.77;13.93;;;14.80;99.90;;;;;;2602847;54;20861;31
2023/06/17 03:53:16;;;;;;;17.55;12.55;;;14.80;99.90;;;;;;2621403;47;20849;31
2023/06/17 03:55:51;;;;;;;14.70;13.00;;;14.90;99.90;;;;;;2602766;54;20076;31
2023/06/17 03:58:26;;;;;;;12.95;10.98;;;14.90;99.90;;;;;;2602646;54;20034;31
2023/06/17 04:01:06;;;;;;;13.80;11.40;;;14.90;99.90;;;;;;2602818;54;20887;31
2023/06/17 04:03:44;;;;;;;16.90;12.83;;;15.00;99.90;;;;;;2602711;54;20085;31
2023/06/17 04:06:19;;;;;;;15.40;13.35;;;15.00;99.90;;;;;;2602724;54;20243;31
2023/06/17 04:08:54;;;;;;;19.52;13.23;;;15.00;99.90;;;;;;2602836;54;20116;31
2023/06/17 04:11:30;;;;;;;14.90;12.37;;;15.10;99.90;;;;;;2621953;46;20038;31
2023/06/17 04:14:05;;;;;;;19.98;12.82;;;15.10;99.90;;;;;;2603373;54;20022;31
2023/06/17 04:16:42;;;;;;;16.55;11.95;;;15.10;99.90;;;;;;2603540;54;20882;31
2023/06/17 04:19:17;;;;;;;13.70;11.77;;;15.20;99.90;;;;;;2603386;54;20037;31
2023/06/17 04:21:52;;;;;;;19.52;13.88;;;15.30;99.90;;;;;;2701769;39;21591;31
2023/06/17 04:24:27;;;;;;;19.23;12.53;;;15.30;99.90;;;;;;2622287;46;20026;31
2023/06/17 04:27:03;;;;;;;13.95;12.38;;;15.40;99.90;;;;;;2603639;54;20969;31
2023/06/17 04:29:41;;;;;;;19.08;13.80;;;15.40;99.90;;;;;;2603504;54;20731;31
2023/06/17 04:32:19;;;;;;;16.40;12.70;;;15.40;99.90;;;;;;2603476;54;21636;31
2023/06/17 04:34:54;;;;;;;14.87;12.13;;;15.50;99.90;;;;;;2603284;54;21667;31
2023/06/17 04:37:32;;;;;;;14.02;11.25;;;15.60;99.90;;;;;;2603230;54;20686;31
2023/06/17 04:40:12;;;;;;;14.23;11.77;;;15.60;99.90;;;;;;2602795;54;20832;31
2023/06/17 04:42:49;;;;;;;12.80;10.95;;;15.70;99.90;;;;;;2603376;54;20506;31
2023/06/17 04:45:24;;;;;;;15.98;11.65;;;15.80;99.90;;;;;;2602820;54;20030;31
2023/06/17 04:48:08;;;;;;;13.70;10.40;;;15.90;99.90;;;;;;2621518;46;20052;31
2023/06/17 04:50:43;;;;;;;14.05;10.30;;;16.00;99.90;;;;;;2773300;31;21329;31
2023/06/17 04:53:18;;;;;;;14.10;9.80;;;16.20;99.90;;;;;;2603497;54;20031;31
2023/06/17 04:55:53;;;;;;;12.50;9.10;;;16.30;99.90;;;;;;2621732;46;20617;31
2023/06/17 04:58:29;;;;;;;13.63;9.00;;;16.60;99.90;;;;;;2603278;54;20054;31
2023/06/17 05:01:14;;;;;;;12.30;9.80;;;16.80;99.90;;;;;;2603328;54;20812;31
2023/06/17 05:03:51;;;;;;;;;;;16.90;99.90;;;;;;2603575;54;20056;31
2023/06/17 05:06:26;;;;;;;14.00;8.80;;;17.00;99.90;;;;;;2621913;46;21485;31
2023/06/17 05:09:02;;;;;;;13.70;8.43;;;17.20;99.90;;;;;;2603112;54;20033;31
2023/06/17 05:11:40;;;;;;;12.50;8.07;;;17.30;99.90;;;;;;2701748;39;20493;31
2023/06/17 05:14:15;;;;;;;10.38;7.57;;;17.70;99.90;;;;;;2603379;54;20583;31
2023/06/17 05:16:50;;;;;;;10.38;7.22;;;18.10;99.90;;;;;;2603201;54;20113;31
2023/06/17 05:19:28;;;;;;;8.25;6.20;;;18.40;99.90;;;;;;2603170;54;20598;31
2023/06/17 05:22:03;;;;;;;9.43;5.88;;;18.70;99.90;;;;;;2701598;39;21689;31
2023/06/17 05:24:39;;;;;;;9.65;5.55;;;19.10;99.90;;;;;;2701668;39;20602;31
2023/06/17 05:27:14;;;;;;;11.27;5.40;;;19.50;99.90;;;;;;2603120;54;20029;31
2023/06/17 05:29:50;;;;;;;9.43;6.00;;;19.80;99.90;;;;;;2603234;54;20853;31
2023/06/17 05:32:26;;;;;;;9.93;6.10;;;20.00;99.90;;;;;;2603281;54;20100;31
2023/06/17 05:35:05;;;;;;;6.45;5.30;;;20.30;99.90;;;;;;2621570;46;20038;31
2023/06/17 05:37:40;;;;;;;8.07;5.50;;;20.50;99.90;;;;;;2701675;39;20530;31
2023/06/17 05:40:16;;;;;;;6.50;5.82;;;20.70;99.90;;;;;;2603273;54;20038;31
2023/06/17 05:42:51;;;;;;;8.82;5.75;;;20.90;99.90;;;;;;2602977;54;20029;31
2023/06/17 05:45:28;;;;;;;6.95;5.40;;;21.20;99.90;;;;;;2603298;54;20598;31
2023/06/17 05:48:03;;;;;;;7.63;5.32;;;21.40;99.90;;;;;;2621294;46;20821;31
2023/06/17 05:50:41;;;;;;;11.35;6.15;;;21.30;99.90;;;;;;2603284;54;20916;31
2023/06/17 05:53:17;;;;;;;6.45;5.20;;;21.20;99.90;;;;;;2603250;54;20026;31
2023/06/17 05:55:53;;;;;;;6.70;5.73;;;21.00;99.90;;;;;;2603075;54;20049;31
2023/06/17 05:58:28;;;;;;;8.60;5.70;;;20.90;99.90;;;;;;2603019;54;20849;31
2023/06/17 06:01:10;;;;;;;8.43;6.00;;;20.80;99.90;;;;;;2621671;46;20061;31
2023/06/17 06:03:46;;;;;;;8.52;5.95;;;20.90;99.90;;;;;;2603064;54;20040;31
2023/06/17 06:06:25;;;;;;;6.50;5.60;;;20.80;99.90;;;;;;2603050;54;20899;31
2023/06/17 06:09:01;;;;;;;11.73;6.15;;;20.80;99.90;;;;;;2603141;54;20922;31
2023/06/17 06:11:35;;;;;;;;;;;20.70;99.90;;;;;;2603401;54;20089;31
2023/06/17 06:14:10;;;;;;;24.25;6.28;;;20.70;99.90;;;;;;2621752;46;19935;31
2023/06/17 06:16:46;;;;;;;15.05;6.03;;;20.80;99.90;;;;;;2603033;54;20745;31
2023/06/17 06:19:22;;;;;;;9.38;5.70;;;20.90;99.90;;;;;;2603017;54;20077;31
2023/06/17 06:22:01;;;;;;;8.15;6.40;;;20.90;99.90;;;;;;2603050;54;20082;31
2023/06/17 06:24:36;;;;;;;8.60;5.70;;;21.10;99.90;;;;;;2602970;54;20842;31
2023/06/17 06:27:11;;;;;;;6.20;5.60;;;21.10;99.90;;;;;;2602829;54;20282;31
2023/06/17 06:29:46;;;;;;;5.57;4.97;;;21.00;99.90;;;;;;2602936;54;20105;31
2023/06/17 06:32:21;;;;;;;5.90;5.30;;;21.00;99.90;;;;;;2602968;54;20966;31
2023/06/17 06:34:57;;;;;;;5.80;5.20;;;20.80;99.90;;;;;;2603208;54;20038;31
2023/06/17 06:37:36;;;;;;;6.53;4.68;;;20.70;99.90;;;;;;2621193;46;20137;31
2023/06/17 06:40:12;;;;;;;7.80;5.65;;;20.50;99.90;;;;;;2791322;31;21452;31
2023/06/17 06:42:47;;;;;;;8.60;5.05;;;20.40;99.90;;;;;;2602813;54;20894;31
2023/06/17 06:45:45;;;;;;;8.50;4.85;;;20.20;99.90;;;;;;2603042;54;20486;31
2023/06/17 06:48:20;;;;;;;6.70;4.35;;;20.10;99.90;;;;;;2602841;54;20805;31
2023/06/17 06:50:55;;;;;;;6.38;4.43;;;19.90;99.90;;;;;;2602792;54;20797;31
2023/06/17 06:53:33;;;;;;;7.35;4.70;;;19.80;99.90;;;;;;2602806;54;20027;31
2023/06/17 06:56:08;;;;;;;7.93;4.10;;;19.70;99.90;;;;;;2621352;46;20035;31
2023/06/17 06:58:44;;;;;;;5.20;3.67;;;19.60;99.90;;;;;;2602991;54;20838;31
2023/06/17 07:01:19;;;;;;;4.20;3.30;;;19.50;99.90;;;;;;2602926;54;20030;31
2023/06/17 07:03:53;;;;;;;6.70;4.57;;;19.40;99.90;;;;;;2621145;46;21171;31
2023/06/17 07:06:30;;;;;;;4.35;3.55;;;19.40;99.90;;;;;;2621626;46;20510;31
2023/06/17 07:09:11;;;;;;;6.13;4.40;;;19.30;99.90;;;;;;2621346;46;20026;31
2023/06/17 07:11:46;;;;;;;4.70;4.28;;;19.30;99.90;;;;;;2621392;46;20026;31
2023/06/17 07:14:21;;;;;;;7.40;3.80;;;19.30;99.90;;;;;;2602806;54;20850;31
2023/06/17 07:16:57;;;;;;;6.72;4.03;;;19.30;99.90;;;;;;2602974;54;20283;31
2023/06/17 07:19:33;;;;;;;5.80;4.30;;;19.30;99.90;;;;;;2602522;54;20862;31
2023/06/17 07:22:10;;;;;;;9.25;4.20;;;19.30;99.90;;;;;;2602981;54;20030;31
2023/06/17 07:24:48;;;;;;;7.97;4.80;;;19.40;99.90;;;;;;2603055;54;20042;31
2023/06/17 07:27:24;;;;;;;7.20;5.10;;;19.40;99.90;;;;;;2701336;39;20692;31
2023/06/17 07:29:59;;;;;;;6.80;4.78;;;19.40;99.90;;;;;;2602827;54;20022;31
2023/06/17 07:32:34;;;;;;;6.70;5.37;;;19.40;99.90;;;;;;2602807;54;20027;31
2023/06/17 07:35:10;;;;;;;5.40;4.72;;;19.40;99.90;;;;;;2603031;54;20026;31
2023/06/17 07:37:45;;;;;;;9.25;4.93;;;19.50;99.90;;;;;;2602704;54;20940;31
2023/06/17 07:40:23;;;;;;;5.30;4.60;;;19.50;99.90;;;;;;2602714;54;20082;31
2023/06/17 07:42:57;;;;;;;5.60;4.60;;;19.70;99.90;;;;;;2602845;54;21313;31
2023/06/17 07:45:32;;;;;;;5.87;4.43;;;19.80;99.90;;;;;;2621181;47;20062;31
2023/06/17 07:48:07;;;;;;;5.23;4.53;;;19.90;99.90;;;;;;2602771;54;20033;31
2023/06/17 07:50:42;;;;;;;6.45;4.65;;;20.10;99.90;;;;;;2602680;54;20022;31
2023/06/17 07:53:17;;;;;;;6.93;4.47;;;20.20;99.90;;;;;;2602546;54;20048;31
2023/06/17 07:55:55;;;;;;;6.20;5.15;;;20.30;99.90;;;;;;2602703;54;20031;31
2023/06/17 07:58:29;;;;;;;5.55;4.95;;;20.60;99.90;;;;;;2602876;54;20911;31
2023/06/17 08:01:04;;;;;;;5.25;4.40;;;20.70;99.90;;;;;;2602436;54;20779;31
2023/06/17 08:03:39;;;;;;;5.45;4.50;;;21.00;99.90;;;;;;2621017;47;20038;31
2023/06/17 08:06:16;;;;;;;5.65;4.00;;;21.10;99.90;;;;;;2602702;54;21040;31
2023/06/17 08:08:50;;;;;;;5.30;4.40;;;21.20;99.90;;;;;;2701172;39;21499;31
2023/06/17 08:11:27;;;;;;;6.53;4.77;;;21.40;99.90;;;;;;2602582;54;20030;31
2023/06/17 08:13:59;;;;;;;4.70;4.20;;;21.60;99.90;;;;;;2621035;47;22318;31
2023/06/17 08:16:36;;;;;;;6.72;4.13;;;21.80;99.90;;;;;;2602798;54;20743;31
2023/06/17 08:19:11;;;;;;;5.05;4.55;;;21.90;99.90;;;;;;2621287;47;20850;31
2023/06/17 08:21:46;;;;;;;5.17;4.10;;;21.90;99.90;;;;;;2602549;54;20032;31
2023/06/17 08:24:21;;;;;;;4.30;3.60;;;22.10;99.90;;;;;;2602570;54;20255;31
2023/06/17 08:26:58;;;;;;;3.87;3.43;;;22.10;99.90;;;;;;2602517;54;21509;31
2023/06/17 08:29:33;;;;;;;7.35;3.53;;;22.20;99.90;;;;;;2602804;54;20027;31
2023/06/17 08:32:08;;;;;;;4.05;2.92;;;22.60;99.90;;;;;;2602528;54;20023;31
2023/06/17 08:34:43;;;;;;;3.97;2.88;;;23.20;99.90;;;;;;2602632;54;20034;31
2023/06/17 08:37:18;;;;;;;4.60;3.15;;;23.70;99.90;;;;;;2621467;47;20891;31
2023/06/17 08:39:52;;;;;;;4.68;3.30;;;23.70;99.90;;;;;;2700877;39;21380;31
2023/06/17 08:42:31;;;;;;;3.40;3.10;;;24.00;99.90;;;;;;2602833;54;20870;31
2023/06/17 08:47:41;;;;;;;3.85;3.05;;;24.90;99.90;;;;;;2621300;47;20026;31
2023/06/17 08:50:16;;;;;;;4.00;3.25;;;25.00;99.90;;;;;;2621399;47;20054;31
2023/06/17 08:52:49;;;;;;;5.63;2.83;;;24.70;99.90;;;;;;2621012;47;22405;31
2023/06/17 08:55:27;;;;;;;5.75;2.60;;;24.90;99.90;;;;;;2602602;54;20037;31
2023/06/17 08:58:01;;;;;;;5.60;3.20;;;25.30;99.90;;;;;;2621726;46;21217;31
2023/06/17 09:03:08;;;;;;;3.28;2.97;;;25.60;99.90;;;;;;2603590;54;20033;31
2023/06/17 09:05:43;;;;;;;4.45;2.67;;;25.40;99.90;;;;;;2622067;46;20846;31
2023/06/17 09:08:17;;;;;;;5.90;3.10;;;25.00;99.90;;;;;;2701259;39;20574;31
2023/06/17 09:10:51;;;;;;;4.50;3.00;;;24.70;99.90;;;;;;2603351;54;20932;31
2023/06/17 09:13:28;;;;;;;4.45;2.95;;;24.60;99.90;;;;;;2621695;46;20033;31
2023/06/17 09:16:03;;;;;;;3.75;2.95;;;24.50;99.90;;;;;;2603264;54;20877;31
2023/06/17 09:18:37;;;;;;;3.45;2.95;;;24.60;99.90;;;;;;2622151;46;20089;31
2023/06/17 09:21:12;;;;;;;3.90;3.25;;;24.50;99.90;;;;;;2603435;54;20029;31
2023/06/17 09:23:55;;;;;;;6.53;3.03;;;24.30;99.90;;;;;;2603000;54;21020;31
2023/06/17 09:26:32;;;;;;;5.20;3.63;;;24.00;99.90;;;;;;2603389;54;20029;31
2023/06/17 09:29:09;;;;;;;4.55;2.85;;;23.90;99.90;;;;;;2603114;54;20645;31
2023/06/17 09:31:53;;;;;;;4.50;3.47;;;23.70;99.90;;;;;;2603329;54;20038;31
2023/06/17 09:34:29;;;;;;;5.97;3.08;;;23.60;99.90;;;;;;2621323;46;20769;31
2023/06/17 09:37:03;;;;;;;;;;;23.70;99.90;;;;;;2603461;54;20132;31
2023/06/17 09:39:38;;;;;;;2.88;2.42;;;24.00;99.90;;;;;;2603218;54;19934;31
2023/06/17 09:42:12;;;;;;;4.35;2.63;;;24.40;99.90;;;;;;2603180;54;20027;31
2023/06/17 09:44:50;;;;;;;3.15;2.75;;;24.50;99.90;;;;;;2603091;54;20048;31
2023/06/17 09:47:28;;;;;;;4.00;2.80;;;24.40;99.90;;;;;;2603134;54;20030;31
2023/06/17 09:50:08;;;;;;;4.15;3.38;;;24.10;99.90;;;;;;2621971;46;20866;31
2023/06/17 09:52:42;;;;;;;4.47;2.33;;;23.90;99.90;;;;;;2603362;54;20971;31
2023/06/17 09:55:16;;;;;;;4.75;3.75;;;23.60;99.90;;;;;;2621763;46;20111;31
2023/06/17 09:57:53;;;;;;;5.63;3.80;;;23.50;99.90;;;;;;2602938;54;20870;31
2023/06/17 10:00:31;;;;;;;4.20;3.80;;;23.50;99.90;;;;;;2603292;54;20303;31
2023/06/17 10:03:06;;;;;;;5.35;3.85;;;23.50;99.90;;;;;;2621184;46;20026;31
2023/06/17 10:05:41;;;;;;;4.55;3.72;;;23.50;99.90;;;;;;2603181;54;20786;31
2023/06/17 10:08:16;;;;;;;4.07;3.60;;;23.40;99.90;;;;;;2701422;39;20577;31
2023/06/17 10:10:50;;;;;;;7.95;4.03;;;23.40;99.90;;;;;;2603105;54;20052;31
2023/06/17 10:13:25;;;;;;;4.03;3.63;;;23.20;99.90;;;;;;2602962;54;20033;31
2023/06/17 10:16:02;;;;;;;4.78;4.30;;;23.10;99.90;;;;;;2603100;54;20027;31
2023/06/17 10:18:37;;;;;;;8.60;4.35;;;23.10;99.90;;;;;;2603001;54;20026;31
2023/06/17 10:21:13;;;;;;;5.38;4.05;;;23.10;99.90;;;;;;2603185;54;20945;31
2023/06/17 10:23:47;;;;;;;5.30;3.70;;;23.00;99.90;;;;;;2621362;46;20614;31
2023/06/17 10:26:22;;;;;;;4.60;3.77;;;22.90;99.90;;;;;;2602877;54;20879;31
2023/06/17 10:29:01;;;;;;;3.50;3.20;;;23.00;99.90;;;;;;2603066;54;20038;31
2023/06/17 10:31:40;;;;;;;6.15;3.40;;;23.00;99.90;;;;;;2603183;54;20139;31
2023/06/17 10:34:17;;;;;;;4.20;3.80;;;23.10;99.90;;;;;;2602910;54;20936;31
2023/06/17 10:36:53;;;;;;;5.70;3.75;;;23.20;99.90;;;;;;2621861;46;20033;31
2023/06/17 10:39:30;;;;;;;;;;;23.30;99.90;;;;;;2603269;54;20030;31
2023/06/17 10:42:05;;;;;;;13.77;3.93;;;23.60;99.90;;;;;;2603097;54;19934;31
2023/06/17 10:44:45;;;;;;;5.05;3.13;;;23.80;99.90;;;;;;2603073;54;20029;31
2023/06/17 10:47:25;;;;;;;4.85;3.45;;;24.00;99.90;;;;;;2603106;54;20037;31
2023/06/17 10:50:01;;;;;;;3.45;3.10;;;24.20;99.90;;;;;;2602660;54;20145;31
2023/06/17 10:52:36;;;;;;;4.55;3.60;;;24.50;99.90;;;;;;2603254;54;20108;31
2023/06/17 10:55:11;;;;;;;3.50;2.97;;;24.80;99.90;;;;;;2602927;54;20023;31
2023/06/17 10:57:45;;;;;;;;;;;25.00;99.90;;;;;;2603054;54;20105;31
2023/06/17 11:00:21;;;;;;;3.30;3.00;;;25.00;99.90;;;;;;2701471;39;21243;31
2023/06/17 11:02:57;;;;;;;6.78;3.47;;;25.00;99.90;;;;;;2621087;46;21204;31
2023/06/17 11:05:37;;;;;;;4.63;2.90;;;25.00;99.90;;;;;;2602790;54;20026;31
2023/06/17 11:08:12;;;;;;;4.30;2.92;;;25.00;99.90;;;;;;2621752;46;20855;31
2023/06/17 11:10:46;;;;;;;3.50;3.10;;;25.10;99.90;;;;;;2603006;54;20888;31
2023/06/17 11:13:23;;;;;;;3.22;2.88;;;25.30;99.90;;;;;;2602850;54;20806;31
2023/06/17 11:15:58;;;;;;;3.55;2.75;;;25.40;99.90;;;;;;2602837;54;20081;31
2023/06/17 11:18:37;;;;;;;3.10;2.63;;;25.40;99.90;;;;;;2621334;46;20022;31
2023/06/17 11:21:12;;;;;;;2.88;2.30;;;25.40;99.90;;;;;;2602897;54;20053;31
2023/06/17 11:23:46;;;;;;;4.10;2.60;;;25.30;99.90;;;;;;2719788;39;20494;31
2023/06/17 11:26:24;;;;;;;3.38;2.90;;;25.20;99.90;;;;;;2602940;54;21104;31
2023/06/17 11:28:59;;;;;;;5.32;3.17;;;25.00;99.90;;;;;;2602948;54;20890;31
2023/06/17 11:31:40;;;;;;;5.05;3.08;;;24.80;99.90;;;;;;2602920;54;20042;31
2023/06/17 11:34:18;;;;;;;3.13;2.50;;;24.70;99.90;;;;;;2602721;54;20594;31
2023/06/17 11:36:53;;;;;;;2.85;2.22;;;24.90;99.90;;;;;;2602675;54;20807;31
2023/06/17 11:39:30;;;;;;;5.13;2.78;;;25.00;99.90;;;;;;2602674;54;20850;31
2023/06/17 11:42:03;;;;;;;4.22;2.45;;;25.20;99.90;;;;;;2620935;46;21225;31
2023/06/17 11:44:38;;;;;;;4.13;2.30;;;25.40;99.90;;;;;;2701306;39;21649;31
2023/06/17 11:47:14;;;;;;;3.77;2.67;;;25.60;99.90;;;;;;2602652;54;20044;31
2023/06/17 11:49:52;;;;;;;4.28;2.70;;;25.80;99.90;;;;;;2603008;54;20279;31
2023/06/17 11:52:27;;;;;;;3.70;2.85;;;25.60;99.90;;;;;;2620869;47;20085;31
2023/06/17 11:55:00;;;;;;;3.35;2.70;;;25.50;99.90;;;;;;2620983;47;21143;31
2023/06/17 11:57:35;;;;;;;3.95;2.80;;;25.40;99.90;;;;;;2620988;47;20045;31
2023/06/17 12:00:10;;;;;;;;;;;25.40;99.90;;;;;;2621210;47;20022;31
2023/06/17 12:02:46;;;;;;;3.97;2.97;;;25.60;99.90;;;;;;2602569;54;20713;31
2023/06/17 12:05:22;;;;;;;4.93;2.95;;;25.60;99.90;;;;;;2700988;39;20483;31
2023/06/17 12:07:59;;;;;;;4.63;2.57;;;25.50;99.90;;;;;;2602476;54;20081;31
2023/06/17 12:10:32;;;;;;;2.92;2.35;;;25.40;99.90;;;;;;2620958;47;22340;31
2023/06/17 12:13:07;;;;;;;3.55;2.25;;;25.40;99.90;;;;;;2602660;54;21456;31
2023/06/17 12:15:42;;;;;;;2.43;2.13;;;25.40;99.90;;;;;;2701265;39;20559;31
2023/06/17 12:18:18;;;;;;;2.78;2.13;;;25.40;99.90;;;;;;2602824;54;20869;31
2023/06/17 12:20:53;;;;;;;;;;;25.40;99.90;;;;;;2603096;54;21395;31
2023/06/17 12:23:28;;;;;;;5.13;2.33;;;25.40;99.90;;;;;;2602406;54;19935;31
2023/06/17 12:26:03;;;;;;;2.70;2.47;;;25.40;99.90;;;;;;2602654;54;20739;31
2023/06/17 12:28:40;;;;;;;5.45;2.50;;;25.40;99.90;;;;;;2602638;54;20946;31
2023/06/17 12:31:14;;;;;;;3.08;2.10;;;25.40;99.90;;;;;;2621930;47;20031;31
2023/06/17 12:33:49;;;;;;;3.30;2.53;;;25.50;99.90;;;;;;2603560;54;20030;31
2023/06/17 12:36:27;;;;;;;3.83;2.22;;;25.60;99.90;;;;;;2603246;54;20048;31
2023/06/17 12:39:04;;;;;;;5.10;2.22;;;25.60;99.90;;;;;;2603438;54;20782;31
2023/06/17 12:41:38;;;;;;;2.70;2.20;;;25.80;99.90;;;;;;2701723;39;20540;31
2023/06/17 12:44:14;;;;;;;2.10;1.67;;;25.90;99.50;;;;;;2603438;54;20892;31
2023/06/17 12:46:49;;;;;;;2.45;1.90;;;25.80;98.00;;;;;;2603346;54;20096;31
2023/06/17 12:49:24;;;;;;;2.55;1.85;;;25.70;98.60;;;;;;2701953;39;20527;31
2023/06/17 12:52:01;;;;;;;1.95;1.75;;;25.70;98.40;;;;;;2603280;54;20289;31
2023/06/17 12:54:36;;;;;;;2.50;2.30;;;25.80;97.70;;;;;;2603471;54;20907;31
2023/06/17 12:57:11;;;;;;;2.47;2.28;;;25.90;98.50;;;;;;2603167;54;20022;31
2023/06/17 12:59:48;;;;;;;2.38;2.10;;;25.90;97.70;;;;;;2603531;54;20034;31
2023/06/17 13:02:23;;;;;;;2.60;1.92;;;25.80;98.10;;;;;;2603203;54;20762;31
2023/06/17 13:04:58;;;;;;;3.35;2.22;;;25.80;98.40;;;;;;2701776;39;20486;31
2023/06/17 13:07:35;;;;;;;3.45;2.25;;;25.70;97.80;;;;;;2622062;46;20564;31
2023/06/17 13:10:08;;;;;;;3.22;2.30;;;25.70;97.20;;;;;;2720225;39;22341;31
2023/06/17 13:12:43;;;;;;;4.45;2.50;;;25.70;96.10;;;;;;2603213;54;20077;31
2023/06/17 13:15:17;;;;;;;3.38;2.67;;;25.80;98.50;;;;;;2603208;54;20030;31
2023/06/17 13:17:50;;;;;;;3.72;2.78;;;25.90;96.30;;;;;;2791587;31;22454;31
2023/06/17 13:20:25;;;;;;;3.35;3.05;;;26.00;97.50;;;;;;2603042;54;20097;31
2023/06/17 13:23:04;;;;;;;3.05;2.60;;;26.10;96.40;;;;;;2720353;39;21441;31
2023/06/17 13:25:38;;;;;;;3.05;2.50;;;26.10;96.90;;;;;;2602958;54;20619;31
2023/06/17 13:28:13;;;;;;;4.40;3.00;;;26.10;96.30;;;;;;2603168;54;20559;31
2023/06/17 13:30:48;;;;;;;3.58;2.60;;;26.00;95.70;;;;;;2603140;54;20033;31
2023/06/17 13:33:23;;;;;;;4.00;2.85;;;25.90;96.10;;;;;;2621308;46;20790;31
2023/06/17 13:35:59;;;;;;;5.15;2.58;;;25.80;96.00;;;;;;2603099;54;20116;31
2023/06/17 13:38:37;;;;;;;3.43;2.90;;;25.80;96.70;;;;;;2603317;54;20033;31
2023/06/17 13:41:13;;;;;;;4.28;2.70;;;25.80;97.50;;;;;;2603024;54;20918;31
2023/06/17 13:43:47;;;;;;;3.40;3.10;;;25.80;97.40;;;;;;2603026;54;20101;31
2023/06/17 13:46:22;;;;;;;3.47;2.70;;;25.80;97.20;;;;;;2621821;46;20977;31